Time;durP1;ratioP1;P1;durP2;ratioP2;P2;SDS_P1;SDS_P2;PMS_P1;PMS_P2;Temp;Humidity;BMP_temperature;BMP_pressure;BME280_temperature;BME280_humidity;BME280_pressure;Samples;Min_cycle;Max_cycle;Signal;HPM_P1;HPM_P2
2022/10/08 00:02:19;;;;;;;11.60;2.50;;;;;;;14.18;70.29;101653.09;5010734;28;20026;-52
2022/10/08 00:04:45;;;;;;;9.73;2.08;;;;;;;14.12;70.39;101644.31;5007763;28;20627;-53
2022/10/08 00:07:10;;;;;;;11.25;2.42;;;;;;;14.13;70.32;101644.34;5007680;28;20111;-53
2022/10/08 00:09:35;;;;;;;10.25;2.08;;;;;;;14.11;70.32;101643.44;5005559;28;20483;-50
2022/10/08 00:12:01;;;;;;;12.57;2.30;;;;;;;14.13;70.59;101641.75;5007991;28;20038;-52
2022/10/08 00:14:26;;;;;;;8.73;2.40;;;;;;;14.13;70.57;101649.50;5004454;28;20063;-51
2022/10/08 00:16:52;;;;;;;13.73;2.58;;;;;;;14.16;70.63;101649.59;5005727;28;20512;-47
2022/10/08 00:19:17;;;;;;;13.98;2.50;;;;;;;14.14;70.65;101647.81;5007474;28;20026;-53
2022/10/08 00:21:44;;;;;;;12.38;2.25;;;;;;;14.16;70.68;101652.19;5005600;28;20163;-53
2022/10/08 00:24:15;;;;;;;13.45;2.65;;;;;;;14.17;70.70;101651.34;5005979;28;20022;-53
2022/10/08 00:26:41;;;;;;;9.80;2.67;;;;;;;14.13;70.77;101646.03;5007194;28;20028;-53
2022/10/08 00:29:08;;;;;;;9.48;2.50;;;;;;;14.18;70.76;101647.91;5005297;28;20041;-52
2022/10/08 00:31:39;;;;;;;11.65;2.40;;;;;;;14.19;70.88;101648.78;5006932;28;20045;-53
2022/10/08 00:34:11;;;;;;;9.02;2.38;;;;;;;14.16;70.96;101647.00;5007995;28;20088;-52
2022/10/08 00:36:38;;;;;;;15.25;2.67;;;;;;;14.18;71.28;101650.50;5006699;28;20124;-51
2022/10/08 00:39:08;;;;;;;13.15;2.22;;;;;;;14.18;71.21;101657.38;5008101;28;20547;-52
2022/10/08 00:41:37;;;;;;;15.68;2.78;;;;;;;14.21;71.30;101657.50;5005871;28;20037;-52
2022/10/08 00:44:41;;;;;;;9.63;2.20;;;;;;;14.25;71.01;101661.00;5010203;28;20112;-53
2022/10/08 00:47:18;;;;;;;14.93;2.40;;;;;;;14.19;71.87;101672.06;5008234;28;20474;-48
2022/10/08 00:49:50;;;;;;;8.90;2.47;;;;;;;14.19;72.24;101667.78;5007712;28;20050;-53
2022/10/08 00:52:17;;;;;;;11.18;2.58;;;;;;;14.16;72.77;101664.25;5010603;28;20045;-53
2022/10/08 00:54:43;;;;;;;11.18;2.25;;;;;;;14.13;72.64;101667.59;5009751;28;20033;-53
2022/10/08 00:57:09;;;;;;;13.20;2.50;;;;;;;14.13;73.09;101667.59;5010236;28;20112;-53
2022/10/08 00:59:36;;;;;;;11.65;2.42;;;;;;;14.11;73.38;101676.19;5010376;28;20171;-50
2022/10/08 01:02:02;;;;;;;11.68;2.50;;;;;;;14.12;73.15;101675.34;5006230;28;20026;-53
2022/10/08 01:04:28;;;;;;;11.93;2.88;;;;;;;14.08;73.43;101676.09;5046848;23;20099;-72
2022/10/08 01:07:12;;;;;;;10.25;2.20;;;;;;;14.14;73.04;101678.84;5030852;28;20044;-73
2022/10/08 01:09:47;;;;;;;13.95;2.60;;;;;;;14.11;73.01;101671.00;5052055;28;20055;-72
2022/10/08 01:12:21;;;;;;;9.70;2.58;;;;;;;14.11;73.61;101671.00;5052606;28;20037;-72
2022/10/08 01:14:52;;;;;;;14.82;2.75;;;;;;;14.10;74.27;101679.59;5034835;28;20032;-73
2022/10/08 01:17:29;;;;;;;13.02;3.50;;;;;;;14.14;75.63;101681.44;5049552;28;20024;-73
2022/10/08 01:20:28;;;;;;;11.10;2.63;;;;;;;14.12;75.73;101685.69;5031111;28;20478;-73
2022/10/08 01:23:17;;;;;;;14.45;3.80;;;;;;;14.11;76.39;101681.34;5058492;28;20048;-74
2022/10/08 01:25:52;;;;;;;13.77;3.95;;;;;;;14.05;78.51;101681.19;5049781;28;21078;-73
2022/10/08 01:28:33;;;;;;;8.43;3.42;;;;;;;14.09;77.86;101685.63;5044590;28;20025;-73
2022/10/08 01:31:07;;;;;;;12.95;3.20;;;;;;;14.03;78.84;101678.56;5045645;28;20095;-72
2022/10/08 01:33:52;;;;;;;10.57;3.35;;;;;;;13.98;79.00;101676.69;5044269;28;20017;-72
2022/10/08 01:36:20;;;;;;;10.77;3.40;;;;;;;13.93;80.18;101676.56;5052970;28;20049;-72
2022/10/08 01:38:52;;;;;;;8.52;3.20;;;;;;;13.92;80.64;101679.97;5049149;28;20386;-72
2022/10/08 01:41:19;;;;;;;11.60;3.85;;;;;;;13.88;80.69;101679.00;5048534;28;20471;-72
2022/10/08 01:43:51;;;;;;;13.43;3.53;;;;;;;13.89;80.32;101673.03;5050799;28;20415;-72
2022/10/08 01:46:25;;;;;;;8.63;3.40;;;;;;;13.92;80.57;101672.22;5050189;28;20035;-72
2022/10/08 01:48:52;;;;;;;10.02;3.28;;;;;;;13.87;80.78;101669.50;5046215;28;20041;-72
2022/10/08 01:51:22;;;;;;;11.60;3.83;;;;;;;13.90;81.25;101673.91;5050661;28;20044;-72
2022/10/08 01:53:50;;;;;;;11.32;3.47;;;;;;;13.86;81.80;101675.50;5041978;28;20030;-71
2022/10/08 01:56:20;;;;;;;11.77;3.47;;;;;;;13.86;81.64;101677.22;5046748;28;20033;-72
2022/10/08 01:59:00;;;;;;;10.13;3.42;;;;;;;13.91;81.27;101692.03;5046058;28;20111;-72
2022/10/08 02:01:35;;;;;;;10.63;3.40;;;;;;;13.84;81.34;101682.38;5043826;28;20029;-72
2022/10/08 02:06:51;;;;;;;11.70;3.28;;;;;;;13.80;82.58;101677.94;5039733;28;20057;-72
2022/10/08 02:09:17;;;;;;;11.23;3.35;;;;;;;13.66;83.36;101687.03;5040346;28;20039;-73
2022/10/08 02:11:43;;;;;;;8.65;3.20;;;;;;;13.71;82.85;101694.88;5045113;28;20055;-72
2022/10/08 02:14:08;;;;;;;11.27;3.40;;;;;;;13.71;83.25;101697.47;5046720;28;20108;-71
2022/10/08 02:16:37;;;;;;;8.95;3.10;;;;;;;13.68;83.66;101691.38;5044510;28;20037;-72
2022/10/08 02:19:13;;;;;;;11.90;3.45;;;;;;;13.74;83.00;101689.81;5046334;28;20068;-71
2022/10/08 02:21:40;;;;;;;9.95;3.03;;;;;;;13.71;83.24;101687.13;5030025;28;20074;-72
2022/10/08 02:24:18;;;;;;;7.82;2.60;;;;;;;13.73;83.15;101695.81;5032828;28;20112;-71
2022/10/08 02:26:49;;;;;;;9.53;2.97;;;;;;;13.68;83.80;101693.09;5042028;28;20060;-71
2022/10/08 02:29:29;;;;;;;9.10;2.90;;;;;;;13.68;84.00;101699.13;5043037;28;20295;-71
2022/10/08 02:32:07;;;;;;;8.27;2.80;;;;;;;13.71;84.03;101702.63;5054639;28;20535;-71
2022/10/08 02:34:59;;;;;;;9.27;2.85;;;;;;;13.75;83.05;101704.47;5046793;28;20034;-71
2022/10/08 02:37:34;;;;;;;8.75;2.90;;;;;;;13.67;84.08;101704.28;5044332;28;20487;-71
2022/10/08 02:40:08;;;;;;;8.05;2.50;;;;;;;13.66;84.11;101703.41;5041271;28;20030;-71
2022/10/08 02:42:36;;;;;;;7.70;2.20;;;;;;;13.62;84.39;101709.28;5046352;28;20029;-71
2022/10/08 02:45:07;;;;;;;6.15;2.60;;;;;;;13.59;84.50;101695.41;5022279;28;20476;-71
2022/10/08 02:47:34;;;;;;;9.07;2.30;;;;;;;13.63;83.84;101698.13;5049065;28;20033;-71
2022/10/08 02:50:06;;;;;;;9.38;2.35;;;;;;;13.58;83.70;101691.94;5029923;28;20082;-71
2022/10/08 02:52:35;;;;;;;10.60;2.38;;;;;;;13.58;83.70;101697.09;5052095;28;20056;-71
2022/10/08 02:55:07;;;;;;;7.60;2.20;;;;;;;13.52;83.70;101691.75;5031844;28;20100;-71
2022/10/08 02:57:43;;;;;;;7.78;2.10;;;;;;;13.57;83.34;101697.94;5047516;28;20460;-71
2022/10/08 03:00:10;;;;;;;7.25;2.00;;;;;;;13.54;83.55;101691.84;5033227;28;20111;-71
2022/10/08 03:02:45;;;;;;;9.50;2.20;;;;;;;13.56;83.11;101687.56;5050261;28;20682;-71
2022/10/08 03:05:17;;;;;;;7.50;2.03;;;;;;;13.47;83.25;101690.78;5042762;28;20053;-71
2022/10/08 03:07:43;;;;;;;7.47;1.80;;;;;;;13.43;83.51;101690.63;5049559;28;21577;-71
2022/10/08 03:10:11;;;;;;;5.95;1.98;;;;;;;13.44;83.70;101693.25;5045536;28;20462;-71
2022/10/08 03:12:37;;;;;;;5.70;1.92;;;;;;;13.47;83.89;101702.78;5059781;28;20060;-71
2022/10/08 03:15:05;;;;;;;5.95;1.88;;;;;;;13.45;83.50;101707.03;5048964;28;20033;-71
2022/10/08 03:17:36;;;;;;;9.90;1.88;;;;;;;13.47;83.50;101705.38;5028380;28;20298;-71
2022/10/08 03:20:04;;;;;;;4.95;1.77;;;;;;;13.47;83.82;101710.53;5041060;28;20087;-71
2022/10/08 03:22:31;;;;;;;6.60;2.00;;;;;;;13.40;84.08;101704.31;5048421;28;20029;-71
2022/10/08 03:24:57;;;;;;;5.55;1.75;;;;;;;13.43;84.30;101713.88;5044664;28;20045;-71
2022/10/08 03:27:22;;;;;;;5.60;1.73;;;;;;;13.46;83.86;101711.38;5048034;28;20021;-71
2022/10/08 03:29:47;;;;;;;7.00;1.92;;;;;;;13.46;83.68;101722.59;5042891;28;20127;-71
2022/10/08 03:32:13;;;;;;;6.60;2.08;;;;;;;13.33;84.06;101711.00;5053345;28;20493;-71
2022/10/08 03:34:38;;;;;;;7.40;2.05;;;;;;;13.39;83.99;101721.53;5048697;28;20044;-71
2022/10/08 03:37:03;;;;;;;6.55;1.58;;;;;;;13.38;84.01;101712.03;5029528;28;20074;-71
2022/10/08 03:39:29;;;;;;;8.05;1.67;;;;;;;13.43;83.72;101727.69;5048740;28;20475;-71
2022/10/08 03:41:54;;;;;;;5.53;1.45;;;;;;;13.38;83.84;101724.94;5035678;28;20026;-71
2022/10/08 03:44:19;;;;;;;8.90;1.95;;;;;;;13.38;83.57;101729.25;5020993;28;20111;-71
2022/10/08 03:46:45;;;;;;;4.40;1.70;;;;;;;13.37;83.69;101733.53;5047052;28;20032;-71
2022/10/08 03:49:10;;;;;;;5.07;1.50;;;;;;;13.35;83.72;101734.34;5038216;28;20141;-71
2022/10/08 03:51:35;;;;;;;7.13;2.00;;;;;;;13.27;83.80;101735.78;5022649;28;20041;-71
2022/10/08 03:54:01;;;;;;;6.40;1.67;;;;;;;13.27;83.62;101730.63;5034083;28;20068;-71
2022/10/08 03:56:26;;;;;;;6.28;1.55;;;;;;;13.25;83.62;101737.44;5041433;28;20511;-71
2022/10/08 03:59:02;;;;;;;7.18;1.65;;;;;;;13.24;83.59;101736.56;5019726;28;20044;-71
2022/10/08 04:01:28;;;;;;;6.47;1.58;;;;;;;13.21;83.33;101730.44;5044980;28;20029;-71
2022/10/08 04:03:53;;;;;;;7.50;1.83;;;;;;;13.17;83.61;101739.78;5040132;28;20033;-72
2022/10/08 04:06:19;;;;;;;5.75;1.40;;;;;;;13.16;83.99;101743.16;5039726;28;20361;-72
2022/10/08 04:08:45;;;;;;;9.52;1.92;;;;;;;13.16;83.55;101743.16;5043809;28;20032;-72
2022/10/08 04:11:15;;;;;;;9.27;1.85;;;;;;;13.17;83.74;101747.53;5041672;28;20380;-72
2022/10/08 04:13:42;;;;;;;5.85;1.70;;;;;;;13.06;83.91;101742.00;5050543;28;20028;-72
2022/10/08 04:16:11;;;;;;;7.13;1.77;;;;;;;13.08;84.75;101749.78;5028848;28;20112;-71
2022/10/08 04:18:36;;;;;;;5.57;1.80;;;;;;;13.09;84.62;101752.41;5045815;28;20033;-72
2022/10/08 04:21:04;;;;;;;6.00;1.73;;;;;;;13.08;84.88;101754.97;5022689;28;20029;-71
2022/10/08 04:23:32;;;;;;;7.10;2.08;;;;;;;13.07;85.21;101754.09;5041238;28;20660;-71
2022/10/08 04:25:57;;;;;;;5.82;1.98;;;;;;;13.07;85.50;101753.22;5044393;28;20487;-71
2022/10/08 04:28:23;;;;;;;6.20;2.90;;;;;;;13.07;85.87;101759.25;5049177;28;20028;-71
2022/10/08 04:31:03;;;;;;;8.27;3.30;;;;;;;13.14;85.91;101753.44;5042272;28;20032;-71
2022/10/08 04:33:32;;;;;;;9.20;3.60;;;;;;;13.12;86.41;101754.25;5041233;28;20029;-72
2022/10/08 04:35:58;;;;;;;9.77;4.32;;;;;;;13.11;86.41;101758.53;5050708;28;20032;-72
2022/10/08 04:38:24;;;;;;;10.90;5.88;;;;;;;13.09;86.69;101761.88;5048870;28;20029;-71
2022/10/08 04:41:16;;;;;;;11.50;6.47;;;;;;;13.17;86.34;101763.00;5042089;28;20033;-71
2022/10/08 04:43:43;;;;;;;12.38;7.80;;;;;;;13.07;87.31;101760.94;5041590;28;20029;-71
2022/10/08 04:46:11;;;;;;;17.17;10.10;;;;;;;13.04;87.86;101774.66;5051978;28;20035;-72
2022/10/08 04:48:37;;;;;;;19.08;11.07;;;;;;;13.01;88.02;101773.66;5040756;28;20533;-72
2022/10/08 04:51:04;;;;;;;18.48;11.77;;;;;;;13.02;88.59;101770.25;5031949;28;20025;-71
2022/10/08 04:53:30;;;;;;;20.80;12.32;;;;;;;13.01;88.82;101776.25;5021360;28;20064;-71
2022/10/08 04:55:56;;;;;;;19.08;12.93;;;;;;;13.05;89.00;101789.31;5028182;28;20116;-71
2022/10/08 04:58:24;;;;;;;19.67;13.05;;;;;;;12.98;89.48;101777.00;5051923;28;20029;-71
2022/10/08 05:00:50;;;;;;;23.00;13.60;;;;;;;13.03;89.47;101783.19;5045099;28;20476;-72
2022/10/08 05:03:15;;;;;;;17.98;13.57;;;;;;;13.08;89.35;101789.41;5033451;28;20036;-72
2022/10/08 05:05:42;;;;;;;20.55;14.02;;;;;;;13.09;89.44;101796.31;5044244;28;20044;-71
2022/10/08 05:08:07;;;;;;;21.17;15.93;;;;;;;13.08;89.34;101791.09;5014232;28;20033;-72
2022/10/08 05:10:33;;;;;;;24.73;16.45;;;;;;;13.08;89.68;101794.56;5044659;28;20033;-72
2022/10/08 05:12:59;;;;;;;22.70;16.30;;;;;;;13.08;89.43;101796.28;5042197;28;20017;-71
2022/10/08 05:15:24;;;;;;;25.02;17.20;;;;;;;13.10;89.68;101799.78;5044993;28;20405;-71
2022/10/08 05:17:49;;;;;;;26.30;17.40;;;;;;;13.09;89.86;101803.19;5051434;28;20025;-72
2022/10/08 05:20:15;;;;;;;25.17;17.05;;;;;;;13.13;89.64;101816.25;5054058;28;20609;-72
2022/10/08 05:22:40;;;;;;;24.25;16.77;;;;;;;13.12;89.54;101809.34;5044203;28;20037;-72
2022/10/08 05:25:06;;;;;;;25.30;17.38;;;;;;;13.11;89.45;101806.72;5042819;28;20025;-72
2022/10/08 05:27:32;;;;;;;28.95;17.98;;;;;;;13.07;89.65;101813.47;5045769;28;20033;-72
2022/10/08 05:29:57;;;;;;;29.13;18.35;;;;;;;13.06;89.72;101808.25;5048982;28;20419;-72
2022/10/08 05:32:23;;;;;;;27.08;19.23;;;;;;;13.07;89.35;101813.47;5056625;28;20123;-72
2022/10/08 05:34:48;;;;;;;28.45;20.08;;;;;;;13.09;89.69;101810.94;5056073;28;20072;-73
2022/10/08 05:37:13;;;;;;;28.70;20.42;;;;;;;13.09;89.41;101821.25;5050379;28;20036;-72
2022/10/08 05:39:39;;;;;;;34.83;21.90;;;;;;;13.05;89.95;101824.59;5027542;28;20033;-72
2022/10/08 05:42:04;;;;;;;36.08;22.45;;;;;;;13.07;89.62;101822.94;5018559;28;20037;-72
2022/10/08 05:44:30;;;;;;;36.47;22.85;;;;;;;13.09;89.67;101827.31;5046920;28;20029;-72
2022/10/08 05:46:55;;;;;;;35.50;23.42;;;;;;;13.07;89.72;101836.72;5047838;28;20383;-72
2022/10/08 05:49:22;;;;;;;34.35;23.10;;;;;;;13.09;89.46;101837.63;5039420;28;20056;-72
2022/10/08 05:51:48;;;;;;;33.65;22.92;;;;;;;13.08;89.57;101835.88;5043306;28;20062;-72
2022/10/08 05:54:14;;;;;;;36.50;24.33;;;;;;;13.02;90.21;101843.41;5034928;28;20100;-72
2022/10/08 05:56:40;;;;;;;36.17;24.38;;;;;;;13.00;89.85;101839.91;5036088;28;20024;-72
2022/10/08 05:59:06;;;;;;;37.30;25.70;;;;;;;13.04;89.74;101840.88;5038680;28;20033;-72
2022/10/08 06:01:32;;;;;;;34.55;23.55;;;;;;;13.03;89.56;101849.47;5051639;28;20494;-73
2022/10/08 06:04:00;;;;;;;37.20;25.02;;;;;;;13.04;89.49;101854.69;5039910;28;20488;-73
2022/10/08 06:06:25;;;;;;;38.10;25.08;;;;;;;13.01;89.54;101852.00;5029268;28;20730;-73
2022/10/08 06:08:59;;;;;;;39.72;25.65;;;;;;;13.06;89.72;101863.38;5040347;28;20036;-73
2022/10/08 06:11:25;;;;;;;34.70;24.00;;;;;;;13.03;89.23;101862.38;5045453;28;20491;-73
2022/10/08 06:13:52;;;;;;;39.72;24.90;;;;;;;13.01;89.60;101869.19;5042312;28;20025;-73
2022/10/08 06:16:18;;;;;;;37.97;24.38;;;;;;;12.97;89.34;101865.63;5045961;28;20041;-73
2022/10/08 06:18:44;;;;;;;39.58;23.50;;;;;;;12.97;89.13;101867.31;5043838;28;20032;-73
2022/10/08 06:21:12;;;;;;;35.40;23.83;;;;;;;13.01;89.35;101876.94;5044878;28;20021;-72
2022/10/08 06:23:39;;;;;;;39.70;24.02;;;;;;;12.93;89.73;101879.25;5041886;28;20014;-73
2022/10/08 06:26:06;;;;;;;38.05;23.90;;;;;;;12.93;89.42;101887.00;5043581;28;20396;-73
2022/10/08 06:28:34;;;;;;;36.72;23.48;;;;;;;12.96;89.62;101901.72;5044581;28;20470;-73
2022/10/08 06:30:59;;;;;;;37.47;23.15;;;;;;;12.97;89.64;101903.47;5045650;28;20029;-73
2022/10/08 06:33:25;;;;;;;36.78;21.73;;;;;;;13.00;89.32;101911.34;5044243;28;20070;-73
2022/10/08 06:35:51;;;;;;;34.10;22.00;;;;;;;13.00;88.83;101911.34;5044809;28;20032;-73
2022/10/08 06:38:17;;;;;;;33.25;21.45;;;;;;;12.98;89.34;101913.84;5045813;28;20032;-73
2022/10/08 06:40:42;;;;;;;37.63;23.40;;;;;;;12.98;89.56;101913.84;5026583;28;20174;-73
2022/10/08 06:43:18;;;;;;;33.55;22.17;;;;;;;13.05;89.42;101921.00;5046301;28;20107;-73
2022/10/08 06:45:45;;;;;;;34.80;21.42;;;;;;;12.97;89.47;101914.66;5047217;28;20034;-73
2022/10/08 06:48:12;;;;;;;32.72;21.65;;;;;;;13.02;89.32;101927.75;5045536;28;20027;-73
2022/10/08 06:50:38;;;;;;;33.05;21.55;;;;;;;12.99;89.71;101930.25;5041664;28;20032;-73
2022/10/08 06:53:05;;;;;;;34.20;21.67;;;;;;;13.00;89.60;101935.44;5044088;28;20114;-73
2022/10/08 06:55:31;;;;;;;34.33;20.63;;;;;;;13.05;89.59;101936.50;5039411;28;20021;-73
2022/10/08 06:57:57;;;;;;;30.45;19.67;;;;;;;13.06;89.59;101947.69;5057124;28;20447;-73
2022/10/08 07:00:22;;;;;;;32.33;19.77;;;;;;;13.01;89.94;101944.94;5041408;28;20111;-73
2022/10/08 07:02:48;;;;;;;27.92;17.45;;;;;;;13.04;89.58;101951.91;5043608;28;20685;-73
2022/10/08 07:05:13;;;;;;;33.33;18.98;;;;;;;13.05;89.45;101959.72;5040380;28;20045;-73
2022/10/08 07:07:39;;;;;;;32.15;19.85;;;;;;;13.05;89.85;101966.59;5052689;28;20038;-73
2022/10/08 07:10:04;;;;;;;32.47;18.00;;;;;;;13.09;89.51;101969.31;5035515;28;20029;-73
2022/10/08 07:12:31;;;;;;;29.40;18.42;;;;;;;13.05;89.68;101977.81;5039479;28;20491;-71
2022/10/08 07:14:57;;;;;;;26.90;17.40;;;;;;;13.07;90.08;101977.84;5042801;28;20033;-72
2022/10/08 07:17:25;;;;;;;28.58;17.42;;;;;;;13.07;89.87;101981.31;5038034;28;20041;-73
2022/10/08 07:19:51;;;;;;;25.85;15.95;;;;;;;13.05;89.46;101972.66;5056638;28;20033;-73
2022/10/08 07:22:16;;;;;;;28.08;15.70;;;;;;;13.06;89.06;101987.31;5019955;28;20033;-72
2022/10/08 07:24:42;;;;;;;24.65;14.20;;;;;;;13.14;88.61;101990.16;5047482;28;20029;-72
2022/10/08 07:27:07;;;;;;;26.17;14.73;;;;;;;13.14;88.90;102000.47;5052281;28;20036;-72
2022/10/08 07:29:33;;;;;;;21.95;12.77;;;;;;;13.13;88.71;102002.19;5042041;28;20029;-72
2022/10/08 07:31:58;;;;;;;21.30;12.35;;;;;;;13.14;88.28;102003.94;5024300;28;20054;-73
2022/10/08 07:34:23;;;;;;;21.27;11.75;;;;;;;13.14;88.29;102009.09;5040089;28;20052;-73
2022/10/08 07:36:49;;;;;;;21.85;11.50;;;;;;;13.11;87.53;102016.75;5017562;28;20044;-73
2022/10/08 07:39:19;;;;;;;20.55;10.88;;;;;;;13.19;87.85;102017.03;5040248;28;20029;-73
2022/10/08 07:41:45;;;;;;;18.05;10.25;;;;;;;13.18;87.67;102020.44;5049447;28;20058;-72
2022/10/08 07:44:11;;;;;;;15.25;9.27;;;;;;;13.25;87.41;102019.84;5045701;28;20056;-72
2022/10/08 07:46:41;;;;;;;21.13;9.63;;;;;;;13.21;87.91;102023.16;5052891;28;20055;-73
2022/10/08 07:49:07;;;;;;;18.67;8.45;;;;;;;13.23;86.82;102021.53;5052990;28;20032;-72
2022/10/08 07:51:33;;;;;;;18.67;8.45;;;;;;;13.25;87.19;102021.56;5057872;28;20059;-72
2022/10/08 07:54:00;;;;;;;15.23;7.45;;;;;;;13.33;86.66;102028.75;5044439;28;20033;-72
2022/10/08 07:56:25;;;;;;;12.77;6.40;;;;;;;13.39;85.61;102017.75;5042598;28;20033;-72
2022/10/08 07:58:50;;;;;;;14.55;5.70;;;;;;;13.56;85.65;102024.38;5043147;28;20458;-72
2022/10/08 08:01:19;;;;;;;17.17;6.50;;;;;;;13.72;85.39;102027.50;5010545;28;20471;-73
2022/10/08 08:03:44;;;;;;;12.10;5.60;;;;;;;13.91;84.22;102030.75;5051398;28;20045;-73
2022/10/08 08:06:14;;;;;;;13.95;5.60;;;;;;;14.08;83.88;102030.44;5040151;28;20041;-73
2022/10/08 08:08:42;;;;;;;12.48;4.70;;;;;;;14.30;82.05;102047.50;5046036;28;20031;-73
2022/10/08 08:11:10;;;;;;;11.70;4.55;;;;;;;14.46;80.49;102047.16;5035622;28;20074;-72
2022/10/08 08:13:38;;;;;;;8.95;4.10;;;;;;;14.68;80.55;102047.00;5024078;28;20032;-72
2022/10/08 08:16:24;;;;;;;8.75;3.40;;;;;;;14.94;79.95;102049.50;5020395;28;20029;-73
2022/10/08 08:18:52;;;;;;;10.18;3.88;;;;;;;15.09;78.04;102054.22;5036358;28;20037;-73
2022/10/08 08:21:20;;;;;;;10.27;3.20;;;;;;;15.16;76.33;102054.44;5034107;28;20040;-73
2022/10/08 08:23:51;;;;;;;10.05;3.08;;;;;;;15.43;75.78;102059.50;5036206;28;20488;-72
2022/10/08 08:26:24;;;;;;;7.90;2.75;;;;;;;15.57;75.53;102065.94;5033772;28;20554;-72
2022/10/08 08:28:51;;;;;;;10.00;2.30;;;;;;;15.81;72.58;102073.50;5045750;28;20028;-71
2022/10/08 08:31:22;;;;;;;7.97;2.05;;;;;;;16.02;71.49;102082.69;5051210;28;20031;-71
2022/10/08 08:33:53;;;;;;;7.75;1.90;;;;;;;16.17;70.78;102084.78;5024788;28;20025;-71
2022/10/08 08:36:22;;;;;;;9.30;1.60;;;;;;;16.27;68.72;102084.19;5020127;28;20487;-69
2022/10/08 08:38:47;;;;;;;6.55;1.42;;;;;;;16.42;68.87;102081.94;5036424;28;20033;-71
2022/10/08 08:41:28;;;;;;;10.55;1.95;;;;;;;16.45;68.91;102091.53;5026827;28;20028;-71
2022/10/08 08:44:06;;;;;;;12.77;1.50;;;;;;;16.69;67.31;102091.22;5035945;28;20029;-71
2022/10/08 08:46:35;;;;;;;6.32;1.48;;;;;;;16.73;64.22;102093.03;5041412;28;20064;-71
2022/10/08 08:49:09;;;;;;;8.23;1.20;;;;;;;16.89;65.55;102105.53;5038266;28;20379;-71
2022/10/08 08:51:35;;;;;;;7.47;1.65;;;;;;;16.96;65.57;102098.75;5052533;28;20021;-70
2022/10/08 08:54:01;;;;;;;6.10;1.48;;;;;;;17.04;65.01;102100.66;5053013;28;20083;-70
2022/10/08 08:56:27;;;;;;;6.68;1.30;;;;;;;17.09;66.11;102103.34;5037189;28;20493;-71
2022/10/08 08:58:57;;;;;;;6.47;1.50;;;;;;;16.90;65.26;102107.28;5044691;28;20041;-69
2022/10/08 09:01:33;;;;;;;7.65;1.42;;;;;;;17.08;65.80;102110.28;5046124;28;20048;-70
2022/10/08 09:04:17;;;;;;;17.80;2.05;;;;;;;17.07;64.71;102103.34;5043561;28;20053;-71
2022/10/08 09:06:44;;;;;;;8.50;1.75;;;;;;;17.05;64.62;102110.22;5048874;28;20036;-72
2022/10/08 09:09:32;;;;;;;8.70;1.95;;;;;;;17.02;64.81;102111.88;5057542;28;20062;-68
2022/10/08 09:11:59;;;;;;;9.48;1.35;;;;;;;17.00;63.81;102116.19;5052357;28;20039;-70
2022/10/08 09:14:33;;;;;;;8.02;1.35;;;;;;;16.97;63.92;102116.97;5043418;28;20030;-70
2022/10/08 09:17:08;;;;;;;7.32;1.50;;;;;;;16.93;63.85;102128.16;5044078;28;20041;-71
2022/10/08 09:19:35;;;;;;;6.32;1.10;;;;;;;16.87;63.18;102113.31;5041923;28;20056;-70
2022/10/08 09:22:00;;;;;;;7.63;1.30;;;;;;;16.91;62.06;102132.41;5038455;28;20423;-70
2022/10/08 09:24:28;;;;;;;6.57;1.30;;;;;;;16.94;62.28;102126.44;5034338;28;20350;-70
2022/10/08 09:26:55;;;;;;;4.47;1.10;;;;;;;16.89;62.10;102126.31;5049850;28;20522;-70
2022/10/08 09:29:32;;;;;;;6.88;1.33;;;;;;;16.86;63.39;102131.44;5048277;28;20545;-70
2022/10/08 09:31:58;;;;;;;6.90;1.35;;;;;;;16.78;63.06;102133.88;5036451;28;20027;-70
2022/10/08 09:34:23;;;;;;;4.47;1.20;;;;;;;16.74;62.50;102139.81;5043803;28;20108;-70
2022/10/08 09:37:12;;;;;;;5.60;1.05;;;;;;;16.75;63.18;102148.53;5042424;28;20037;-70
2022/10/08 09:39:38;;;;;;;4.97;1.00;;;;;;;16.70;62.90;102147.50;5049184;28;20037;-70
2022/10/08 09:42:06;;;;;;;7.90;1.30;;;;;;;16.69;63.05;102153.53;5043444;28;20035;-70
2022/10/08 09:44:44;;;;;;;7.95;1.10;;;;;;;16.77;63.88;102147.72;5057513;28;20040;-70
2022/10/08 09:47:12;;;;;;;5.55;1.38;;;;;;;16.80;63.23;102163.34;5043444;28;20040;-71
2022/10/08 09:49:38;;;;;;;5.53;1.30;;;;;;;16.82;60.79;102168.59;5024382;28;20545;-70
2022/10/08 09:52:12;;;;;;;5.53;0.90;;;;;;;16.82;60.83;102176.41;5022641;28;20036;-70
2022/10/08 09:54:55;;;;;;;6.15;1.23;;;;;;;16.75;59.28;102190.97;5036795;28;20029;-71
2022/10/08 09:57:21;;;;;;;7.40;1.15;;;;;;;16.73;57.31;102189.16;5038026;28;20073;-70
2022/10/08 09:59:57;;;;;;;5.80;1.00;;;;;;;16.80;58.10;102191.91;5039736;28;20365;-71
2022/10/08 10:02:33;;;;;;;4.20;0.90;;;;;;;16.76;57.87;102192.72;5045704;28;21924;-70
2022/10/08 10:05:02;;;;;;;8.52;1.05;;;;;;;16.76;57.74;102187.50;5033562;28;20044;-71
2022/10/08 10:07:40;;;;;;;6.72;1.00;;;;;;;16.89;59.89;102181.75;5039011;28;20103;-70
2022/10/08 10:10:37;;;;;;;10.10;1.38;;;;;;;16.96;59.43;102187.97;5042226;28;20023;-70
2022/10/08 10:13:18;;;;;;;8.82;1.20;;;;;;;16.99;58.49;102184.59;5029735;28;20045;-70
2022/10/08 10:15:51;;;;;;;6.35;1.15;;;;;;;17.03;59.14;102186.38;5036927;28;20032;-71
2022/10/08 10:18:28;;;;;;;11.50;1.88;;;;;;;17.08;57.49;102196.03;5033649;28;20120;-71
2022/10/08 10:21:00;;;;;;;4.72;1.00;;;;;;;17.04;56.59;102194.22;5037706;28;20026;-71
2022/10/08 10:23:35;;;;;;;7.25;1.10;;;;;;;17.13;56.43;102193.56;5043029;28;20029;-71
2022/10/08 10:26:11;;;;;;;7.53;1.45;;;;;;;17.13;56.63;102197.03;5037795;28;20045;-72
2022/10/08 10:28:41;;;;;;;3.80;0.90;;;;;;;17.21;56.75;102197.19;5039978;28;20471;-72
2022/10/08 10:31:11;;;;;;;7.18;1.17;;;;;;;17.13;55.71;102204.81;5039197;28;20436;-72
2022/10/08 10:33:49;;;;;;;3.92;0.80;;;;;;;17.26;54.96;102200.78;5039267;28;20537;-72
2022/10/08 10:36:17;;;;;;;5.88;1.00;;;;;;;17.24;53.58;102209.41;5039297;28;20103;-72
2022/10/08 10:39:20;;;;;;;8.55;1.17;;;;;;;17.30;54.50;102212.13;5038959;28;20025;-72
2022/10/08 10:42:09;;;;;;;4.35;0.80;;;;;;;17.40;55.59;102206.25;5027356;28;20484;-71
2022/10/08 10:44:55;;;;;;;;;;;;;;;17.55;55.97;102209.19;5040105;28;20064;-72
2022/10/08 10:47:28;;;;;;;5.85;1.05;;;;;;;17.55;54.99;102204.00;5040470;28;20011;-72
2022/10/08 10:49:54;;;;;;;5.30;1.27;;;;;;;17.57;53.91;102207.50;5029177;28;20546;-72
2022/10/08 10:52:38;;;;;;;4.55;1.05;;;;;;;17.75;53.10;102212.22;5040026;28;20121;-71
2022/10/08 10:55:30;;;;;;;5.35;1.00;;;;;;;17.76;52.93;102205.31;5036058;28;20442;-71
2022/10/08 10:58:02;;;;;;;6.32;1.15;;;;;;;17.64;53.47;102219.78;5045483;28;20024;-71
2022/10/08 11:00:55;;;;;;;5.63;0.90;;;;;;;17.69;53.90;102214.69;5023506;28;20041;-71
2022/10/08 11:03:44;;;;;;;7.93;1.67;;;;;;;17.62;53.47;102220.59;5037540;28;20025;-71
2022/10/08 11:06:28;;;;;;;8.07;1.25;;;;;;;17.55;53.34;102214.41;5042400;28;20041;-71
2022/10/08 11:09:03;;;;;;;7.30;1.10;;;;;;;17.36;52.06;102217.47;5038972;28;20029;-71
2022/10/08 11:11:35;;;;;;;3.42;1.08;;;;;;;17.27;51.96;102215.53;5042296;28;20033;-71
2022/10/08 11:14:08;;;;;;;4.90;0.90;;;;;;;17.30;52.86;102217.34;5044744;28;20075;-72
2022/10/08 11:16:45;;;;;;;7.43;1.10;;;;;;;17.74;52.44;102220.00;5030695;28;20124;-71
2022/10/08 11:19:29;;;;;;;6.80;0.95;;;;;;;17.80;51.34;102227.94;5048424;28;20051;-71
2022/10/08 11:22:03;;;;;;;4.47;1.05;;;;;;;17.78;51.51;102225.31;5037184;28;20029;-71
2022/10/08 11:24:49;;;;;;;4.25;0.95;;;;;;;18.17;52.46;102224.31;5054657;28;20024;-71
2022/10/08 11:27:32;;;;;;;5.03;0.98;;;;;;;18.42;52.70;102223.91;5046516;28;20494;-71
2022/10/08 11:30:13;;;;;;;5.57;0.90;;;;;;;18.43;51.12;102220.44;5048293;28;20025;-71
2022/10/08 11:32:41;;;;;;;6.68;1.00;;;;;;;18.29;50.12;102227.16;5051790;28;20021;-71
2022/10/08 11:35:27;;;;;;;4.70;0.88;;;;;;;18.14;51.65;102227.75;5050530;28;20068;-72
2022/10/08 11:38:22;;;;;;;6.32;1.00;;;;;;;17.92;51.33;102233.38;5048472;28;20035;-71